VSF weather

Hartness State (Springfield) Airport
Springfield, Vermont, United States

Public forecast

Using degrees Fahrenheit for public forecast. Weather courtesy of forecast.io.

Current aviation weather report (METAR) for Hartness State (Springfield) Airport

Retrieved 2020/07/06 18:54 UTC (35 minutes ago):

KVSF 061854Z AUTO VRB03KT 10SM CLR 28/09 A3009 RMK AO2 SLP187 T02780094

Closest aviation forecast (TAF) to Hartness State (Springfield) Airport

Closest forecast is Lebanon Municipal Airport, 19.3 nm (35.8 km) NNE. Retrieved 2020/07/06 18:51 UTC (38 minutes ago):

TAF KLEB 061741Z 0618/0718 VRB03KT P6SM FEW050 FM070800 00000KT 2SM BR SCT001 FM071200 18005KT P6SM SCT250